sensor_id;sensor_type;location;lat;lon;timestamp;pressure;altitude;pressure_sealevel;temperature
66180;BMP280;52986;44.028;20.466;2022-10-16T00:02:22;98647.88;;;9.58
66180;BMP280;52986;44.028;20.466;2022-10-16T00:04:48;98652.53;;;9.54
66180;BMP280;52986;44.028;20.466;2022-10-16T00:07:13;98646.91;;;9.49
66180;BMP280;52986;44.028;20.466;2022-10-16T00:09:39;98653.47;;;9.44
66180;BMP280;52986;44.028;20.466;2022-10-16T00:12:04;98655.69;;;9.49
66180;BMP280;52986;44.028;20.466;2022-10-16T00:14:32;98648.88;;;9.45
66180;BMP280;52986;44.028;20.466;2022-10-16T00:16:57;98661.50;;;9.44
66180;BMP280;52986;44.028;20.466;2022-10-16T00:19:22;98663.56;;;9.36
66180;BMP280;52986;44.028;20.466;2022-10-16T00:21:48;98655.53;;;9.36
66180;BMP280;52986;44.028;20.466;2022-10-16T00:24:13;98665.47;;;9.36
66180;BMP280;52986;44.028;20.466;2022-10-16T00:26:39;98662.47;;;9.34
66180;BMP280;52986;44.028;20.466;2022-10-16T00:29:05;98663.28;;;9.31
66180;BMP280;52986;44.028;20.466;2022-10-16T00:31:30;98662.47;;;9.34
66180;BMP280;52986;44.028;20.466;2022-10-16T00:33:56;98665.13;;;9.34
66180;BMP280;52986;44.028;20.466;2022-10-16T00:36:24;98651.78;;;9.34
66180;BMP280;52986;44.028;20.466;2022-10-16T00:38:52;98660.63;;;9.31
66180;BMP280;52986;44.028;20.466;2022-10-16T00:41:22;98667.06;;;9.33
66180;BMP280;52986;44.028;20.466;2022-10-16T00:43:51;98664.78;;;9.32
66180;BMP280;52986;44.028;20.466;2022-10-16T00:46:26;98662.47;;;9.34
66180;BMP280;52986;44.028;20.466;2022-10-16T00:51:34;98665.91;;;9.34
66180;BMP280;52986;44.028;20.466;2022-10-16T00:54:02;98672.47;;;9.30
66180;BMP280;52986;44.028;20.466;2022-10-16T00:56:28;98676.97;;;9.33
66180;BMP280;52986;44.028;20.466;2022-10-16T00:58:53;98670.81;;;9.36
66180;BMP280;52986;44.028;20.466;2022-10-16T01:01:19;98678.44;;;9.37
66180;BMP280;52986;44.028;20.466;2022-10-16T01:03:44;98685.97;;;9.42
66180;BMP280;52986;44.028;20.466;2022-10-16T01:06:50;98687.59;;;9.40
66180;BMP280;52986;44.028;20.466;2022-10-16T01:09:25;98678.03;;;9.39
66180;BMP280;52986;44.028;20.466;2022-10-16T01:15:02;98673.78;;;9.41
66180;BMP280;52986;44.028;20.466;2022-10-16T01:22:47;98665.69;;;9.45
66180;BMP280;52986;44.028;20.466;2022-10-16T01:25:25;98668.97;;;9.53
66180;BMP280;52986;44.028;20.466;2022-10-16T01:27:54;98673.91;;;9.54
66180;BMP280;52986;44.028;20.466;2022-10-16T01:30:24;98665.91;;;9.54
66180;BMP280;52986;44.028;20.466;2022-10-16T01:33:02;98669.75;;;9.53
66180;BMP280;52986;44.028;20.466;2022-10-16T01:35:33;98669.06;;;9.49
66180;BMP280;52986;44.028;20.466;2022-10-16T01:38:04;98678.25;;;9.48
66180;BMP280;52986;44.028;20.466;2022-10-16T01:40:32;98668.72;;;9.47
66180;BMP280;52986;44.028;20.466;2022-10-16T01:43:03;98679.75;;;9.49
66180;BMP280;52986;44.028;20.466;2022-10-16T01:45:31;98672.91;;;9.48
66180;BMP280;52986;44.028;20.466;2022-10-16T01:48:00;98675.63;;;9.45
66180;BMP280;52986;44.028;20.466;2022-10-16T01:50:26;98677.84;;;9.50
66180;BMP280;52986;44.028;20.466;2022-10-16T01:52:52;98680.03;;;9.55
66180;BMP280;52986;44.028;20.466;2022-10-16T01:55:26;98676.59;;;9.54
66180;BMP280;52986;44.028;20.466;2022-10-16T01:57:55;98688.47;;;9.53
66180;BMP280;52986;44.028;20.466;2022-10-16T02:00:22;98684.75;;;9.47
66180;BMP280;52986;44.028;20.466;2022-10-16T02:02:49;98694.16;;;9.55
66180;BMP280;52986;44.028;20.466;2022-10-16T02:05:27;98694.16;;;9.55
66180;BMP280;52986;44.028;20.466;2022-10-16T02:07:53;98698.28;;;9.60
66180;BMP280;52986;44.028;20.466;2022-10-16T02:10:19;98712.38;;;9.60
66180;BMP280;52986;44.028;20.466;2022-10-16T02:12:53;98709.41;;;9.58
66180;BMP280;52986;44.028;20.466;2022-10-16T02:15:21;98706.59;;;9.65
66180;BMP280;52986;44.028;20.466;2022-10-16T02:17:46;98706.44;;;9.72
66180;BMP280;52986;44.028;20.466;2022-10-16T02:20:12;98704.09;;;9.75
66180;BMP280;52986;44.028;20.466;2022-10-16T02:22:45;98714.03;;;9.74
66180;BMP280;52986;44.028;20.466;2022-10-16T02:25:28;98712.13;;;9.75
66180;BMP280;52986;44.028;20.466;2022-10-16T02:30:29;98712.50;;;9.77
66180;BMP280;52986;44.028;20.466;2022-10-16T02:32:58;98705.59;;;9.76
66180;BMP280;52986;44.028;20.466;2022-10-16T02:35:25;98704.47;;;9.77
66180;BMP280;52986;44.028;20.466;2022-10-16T02:37:53;98709.81;;;9.77
66180;BMP280;52986;44.028;20.466;2022-10-16T02:40:19;98706.03;;;9.74
66180;BMP280;52986;44.028;20.466;2022-10-16T02:42:50;98708.56;;;9.61
66180;BMP280;52986;44.028;20.466;2022-10-16T02:45:16;98707.19;;;9.53
66180;BMP280;52986;44.028;20.466;2022-10-16T02:47:41;98711.13;;;9.45
66180;BMP280;52986;44.028;20.466;2022-10-16T02:50:07;98709.00;;;9.36
66180;BMP280;52986;44.028;20.466;2022-10-16T02:52:32;98719.09;;;9.29
66180;BMP280;52986;44.028;20.466;2022-10-16T02:54:58;98710.84;;;9.20
66180;BMP280;52986;44.028;20.466;2022-10-16T02:57:23;98711.28;;;9.15
66180;BMP280;52986;44.028;20.466;2022-10-16T02:59:49;98716.41;;;9.05
66180;BMP280;52986;44.028;20.466;2022-10-16T03:02:14;98714.56;;;9.02
66180;BMP280;52986;44.028;20.466;2022-10-16T03:04:40;98713.50;;;8.96
66180;BMP280;52986;44.028;20.466;2022-10-16T03:07:05;98713.47;;;9.00
66180;BMP280;52986;44.028;20.466;2022-10-16T03:09:31;98721.19;;;8.94
66180;BMP280;52986;44.028;20.466;2022-10-16T03:11:56;98714.78;;;8.88
66180;BMP280;52986;44.028;20.466;2022-10-16T03:14:22;98718.31;;;8.81
66180;BMP280;52986;44.028;20.466;2022-10-16T03:16:47;98722.56;;;8.79
66180;BMP280;52986;44.028;20.466;2022-10-16T03:19:13;98726.38;;;8.78
66180;BMP280;52986;44.028;20.466;2022-10-16T03:21:38;98724.81;;;8.80
66180;BMP280;52986;44.028;20.466;2022-10-16T03:24:04;98727.50;;;8.80
66180;BMP280;52986;44.028;20.466;2022-10-16T03:26:29;98730.59;;;8.79
66180;BMP280;52986;44.028;20.466;2022-10-16T03:28:54;98732.03;;;8.84
66180;BMP280;52986;44.028;20.466;2022-10-16T03:31:20;98732.88;;;8.77
66180;BMP280;52986;44.028;20.466;2022-10-16T03:33:45;98741.34;;;8.72
66180;BMP280;52986;44.028;20.466;2022-10-16T03:36:11;98739.06;;;8.74
66180;BMP280;52986;44.028;20.466;2022-10-16T03:38:36;98739.38;;;8.76
66180;BMP280;52986;44.028;20.466;2022-10-16T03:41:01;98732.13;;;8.76
66180;BMP280;52986;44.028;20.466;2022-10-16T03:43:27;98733.34;;;8.72
66180;BMP280;52986;44.028;20.466;2022-10-16T03:45:52;98734.19;;;8.65
66180;BMP280;52986;44.028;20.466;2022-10-16T03:48:18;98732.69;;;8.64
66180;BMP280;52986;44.028;20.466;2022-10-16T03:50:44;98734.69;;;8.57
66180;BMP280;52986;44.028;20.466;2022-10-16T03:53:09;98742.31;;;8.58
66180;BMP280;52986;44.028;20.466;2022-10-16T03:55:35;98742.31;;;8.58
66180;BMP280;52986;44.028;20.466;2022-10-16T03:58:01;98744.22;;;8.58
66180;BMP280;52986;44.028;20.466;2022-10-16T04:00:26;98740.34;;;8.62
66180;BMP280;52986;44.028;20.466;2022-10-16T04:02:52;98743.47;;;8.57
66180;BMP280;52986;44.028;20.466;2022-10-16T04:05:17;98736.75;;;8.45
66180;BMP280;52986;44.028;20.466;2022-10-16T04:07:42;98737.56;;;8.42
66180;BMP280;52986;44.028;20.466;2022-10-16T04:10:08;98732.59;;;8.44
66180;BMP280;52986;44.028;20.466;2022-10-16T04:12:33;98737.94;;;8.44
66180;BMP280;52986;44.028;20.466;2022-10-16T04:14:59;98752.06;;;8.41
66180;BMP280;52986;44.028;20.466;2022-10-16T04:17:24;98750.16;;;8.42
66180;BMP280;52986;44.028;20.466;2022-10-16T04:19:49;98754.75;;;8.41
66180;BMP280;52986;44.028;20.466;2022-10-16T04:22:15;98749.16;;;8.32
66180;BMP280;52986;44.028;20.466;2022-10-16T04:24:40;98751.97;;;8.18
66180;BMP280;52986;44.028;20.466;2022-10-16T04:27:05;98748.94;;;8.16
66180;BMP280;52986;44.028;20.466;2022-10-16T04:29:31;98750.91;;;8.12
66180;BMP280;52986;44.028;20.466;2022-10-16T04:31:56;98747.88;;;8.10
66180;BMP280;52986;44.028;20.466;2022-10-16T04:34:21;98754.03;;;8.07
66180;BMP280;52986;44.028;20.466;2022-10-16T04:36:48;98750.28;;;8.01
66180;BMP280;52986;44.028;20.466;2022-10-16T04:39:14;98758.31;;;7.97
66180;BMP280;52986;44.028;20.466;2022-10-16T04:41:40;98755.31;;;7.91
66180;BMP280;52986;44.028;20.466;2022-10-16T04:44:05;98751.94;;;7.87
66180;BMP280;52986;44.028;20.466;2022-10-16T04:46:31;98757.34;;;7.80
66180;BMP280;52986;44.028;20.466;2022-10-16T04:48:56;98766.94;;;7.74
66180;BMP280;52986;44.028;20.466;2022-10-16T04:51:21;98766.50;;;7.79
66180;BMP280;52986;44.028;20.466;2022-10-16T04:53:47;98774.53;;;7.76
66180;BMP280;52986;44.028;20.466;2022-10-16T04:56:12;98771.81;;;7.83
66180;BMP280;52986;44.028;20.466;2022-10-16T04:58:38;98775.66;;;7.78
66180;BMP280;52986;44.028;20.466;2022-10-16T05:01:03;98776.81;;;7.77
66180;BMP280;52986;44.028;20.466;2022-10-16T05:03:28;98788.16;;;7.85
66180;BMP280;52986;44.028;20.466;2022-10-16T05:05:54;98792.75;;;7.81
66180;BMP280;52986;44.028;20.466;2022-10-16T05:08:19;98791.22;;;7.83
66180;BMP280;52986;44.028;20.466;2022-10-16T05:10:45;98797.78;;;7.75
66180;BMP280;52986;44.028;20.466;2022-10-16T05:13:11;98795.19;;;7.68
66180;BMP280;52986;44.028;20.466;2022-10-16T05:15:37;98806.94;;;7.74
66180;BMP280;52986;44.028;20.466;2022-10-16T05:18:02;98806.53;;;7.76
66180;BMP280;52986;44.028;20.466;2022-10-16T05:20:28;98808.81;;;7.77
66180;BMP280;52986;44.028;20.466;2022-10-16T05:22:53;98813.38;;;7.80
66180;BMP280;52986;44.028;20.466;2022-10-16T05:25:19;98813.00;;;7.78
66180;BMP280;52986;44.028;20.466;2022-10-16T05:27:48;98817.97;;;7.76
66180;BMP280;52986;44.028;20.466;2022-10-16T05:30:14;98814.53;;;7.76
66180;BMP280;52986;44.028;20.466;2022-10-16T05:32:39;98819.41;;;7.84
66180;BMP280;52986;44.028;20.466;2022-10-16T05:35:05;98816.38;;;7.82
66180;BMP280;52986;44.028;20.466;2022-10-16T05:37:31;98819.41;;;7.84
66180;BMP280;52986;44.028;20.466;2022-10-16T05:39:56;98823.19;;;7.90
66180;BMP280;52986;44.028;20.466;2022-10-16T05:42:21;98843.00;;;8.23
66180;BMP280;52986;44.028;20.466;2022-10-16T05:44:47;98849.69;;;9.30
66180;BMP280;52986;44.028;20.466;2022-10-16T05:47:12;98845.53;;;10.36
66180;BMP280;52986;44.028;20.466;2022-10-16T05:49:38;98841.03;;;11.21
66180;BMP280;52986;44.028;20.466;2022-10-16T05:52:03;98835.59;;;11.99
66180;BMP280;52986;44.028;20.466;2022-10-16T05:54:28;98843.66;;;12.66
66180;BMP280;52986;44.028;20.466;2022-10-16T05:56:54;98851.50;;;13.11
66180;BMP280;52986;44.028;20.466;2022-10-16T05:59:19;98853.88;;;13.78
66180;BMP280;52986;44.028;20.466;2022-10-16T06:01:44;98857.94;;;14.04
66180;BMP280;52986;44.028;20.466;2022-10-16T06:04:10;98856.06;;;14.45
66180;BMP280;52986;44.028;20.466;2022-10-16T06:06:35;98864.94;;;14.95
66180;BMP280;52986;44.028;20.466;2022-10-16T06:09:02;98866.38;;;15.45
66180;BMP280;52986;44.028;20.466;2022-10-16T06:11:29;98865.63;;;15.45
66180;BMP280;52986;44.028;20.466;2022-10-16T06:13:57;98868.75;;;15.89
66180;BMP280;52986;44.028;20.466;2022-10-16T06:16:24;98877.59;;;16.07
66180;BMP280;52986;44.028;20.466;2022-10-16T06:18:53;98885.22;;;16.51
66180;BMP280;52986;44.028;20.466;2022-10-16T06:21:24;98872.47;;;16.85
66180;BMP280;52986;44.028;20.466;2022-10-16T06:23:51;98876.28;;;17.02
66180;BMP280;52986;44.028;20.466;2022-10-16T06:26:20;98875.84;;;17.18
66180;BMP280;52986;44.028;20.466;2022-10-16T06:28:45;98883.53;;;17.20
66180;BMP280;52986;44.028;20.466;2022-10-16T06:31:12;98875.78;;;17.66
66180;BMP280;52986;44.028;20.466;2022-10-16T06:33:38;98876.91;;;17.89
66180;BMP280;52986;44.028;20.466;2022-10-16T06:36:06;98890.34;;;18.27
66180;BMP280;52986;44.028;20.466;2022-10-16T06:38:34;98900.38;;;18.71
66180;BMP280;52986;44.028;20.466;2022-10-16T06:40:59;98896.22;;;18.96
66180;BMP280;52986;44.028;20.466;2022-10-16T06:43:25;98899.91;;;19.59
66180;BMP280;52986;44.028;20.466;2022-10-16T06:45:55;98899.63;;;19.83
66180;BMP280;52986;44.028;20.466;2022-10-16T06:48:21;98898.13;;;19.82
66180;BMP280;52986;44.028;20.466;2022-10-16T06:53:34;98901.28;;;20.06
66180;BMP280;52986;44.028;20.466;2022-10-16T06:56:17;98903.63;;;21.10
66180;BMP280;52986;44.028;20.466;2022-10-16T06:58:43;98909.06;;;22.55
66180;BMP280;52986;44.028;20.466;2022-10-16T07:01:10;98907.78;;;21.05
66180;BMP280;52986;44.028;20.466;2022-10-16T07:03:37;98906.44;;;21.88
66180;BMP280;52986;44.028;20.466;2022-10-16T07:06:04;98904.94;;;22.26
66180;BMP280;52986;44.028;20.466;2022-10-16T07:08:34;98916.53;;;22.60
66180;BMP280;52986;44.028;20.466;2022-10-16T07:11:01;98915.59;;;22.29
66180;BMP280;52986;44.028;20.466;2022-10-16T07:13:27;98919.56;;;22.28
66180;BMP280;52986;44.028;20.466;2022-10-16T07:15:53;98921.59;;;21.94
66180;BMP280;52986;44.028;20.466;2022-10-16T07:18:18;98918.03;;;22.44
66180;BMP280;52986;44.028;20.466;2022-10-16T07:20:43;98918.69;;;22.84
66180;BMP280;52986;44.028;20.466;2022-10-16T07:23:09;98923.44;;;22.72
66180;BMP280;52986;44.028;20.466;2022-10-16T07:25:34;98927.78;;;22.34
66180;BMP280;52986;44.028;20.466;2022-10-16T07:28:00;98923.88;;;25.42
66180;BMP280;52986;44.028;20.466;2022-10-16T07:30:25;98926.03;;;24.74
66180;BMP280;52986;44.028;20.466;2022-10-16T07:32:50;98927.59;;;23.72
66180;BMP280;52986;44.028;20.466;2022-10-16T07:35:16;98929.94;;;25.16
66180;BMP280;52986;44.028;20.466;2022-10-16T07:37:44;98928.69;;;24.98
66180;BMP280;52986;44.028;20.466;2022-10-16T07:40:10;98936.84;;;26.52
66180;BMP280;52986;44.028;20.466;2022-10-16T07:42:36;98926.03;;;25.62
66180;BMP280;52986;44.028;20.466;2022-10-16T07:45:02;98932.50;;;25.77
66180;BMP280;52986;44.028;20.466;2022-10-16T07:47:27;98933.72;;;26.82
66180;BMP280;52986;44.028;20.466;2022-10-16T07:49:52;98936.66;;;27.38
66180;BMP280;52986;44.028;20.466;2022-10-16T07:52:18;98941.91;;;27.70
66180;BMP280;52986;44.028;20.466;2022-10-16T07:54:43;98937.84;;;27.51
66180;BMP280;52986;44.028;20.466;2022-10-16T07:57:08;98943.84;;;26.13
66180;BMP280;52986;44.028;20.466;2022-10-16T07:59:34;98941.06;;;26.00
66180;BMP280;52986;44.028;20.466;2022-10-16T08:01:59;98937.28;;;26.03
66180;BMP280;52986;44.028;20.466;2022-10-16T08:04:24;98942.41;;;26.86
66180;BMP280;52986;44.028;20.466;2022-10-16T08:06:50;98948.81;;;27.64
66180;BMP280;52986;44.028;20.466;2022-10-16T08:09:15;98949.34;;;27.62
66180;BMP280;52986;44.028;20.466;2022-10-16T08:11:40;98946.03;;;29.38
66180;BMP280;52986;44.028;20.466;2022-10-16T08:14:06;98950.66;;;28.62
66180;BMP280;52986;44.028;20.466;2022-10-16T08:16:31;98945.78;;;29.89
66180;BMP280;52986;44.028;20.466;2022-10-16T08:18:57;98964.13;;;28.29
66180;BMP280;52986;44.028;20.466;2022-10-16T08:21:22;98954.28;;;29.00
66180;BMP280;52986;44.028;20.466;2022-10-16T08:23:49;98955.16;;;28.95
66180;BMP280;52986;44.028;20.466;2022-10-16T08:26:15;98945.28;;;29.75
66180;BMP280;52986;44.028;20.466;2022-10-16T08:28:40;98954.44;;;28.87
66180;BMP280;52986;44.028;20.466;2022-10-16T08:31:11;98948.78;;;29.46
66180;BMP280;52986;44.028;20.466;2022-10-16T08:33:37;98951.72;;;29.48
66180;BMP280;52986;44.028;20.466;2022-10-16T08:36:04;98957.41;;;29.19
66180;BMP280;52986;44.028;20.466;2022-10-16T08:38:30;98951.88;;;29.04
66180;BMP280;52986;44.028;20.466;2022-10-16T08:46:44;98957.44;;;29.50
66180;BMP280;52986;44.028;20.466;2022-10-16T08:49:12;98953.38;;;29.66
66180;BMP280;52986;44.028;20.466;2022-10-16T08:51:41;98961.84;;;29.75
66180;BMP280;52986;44.028;20.466;2022-10-16T08:56:54;98964.06;;;29.62
66180;BMP280;52986;44.028;20.466;2022-10-16T08:59:19;98960.75;;;30.74
66180;BMP280;52986;44.028;20.466;2022-10-16T09:01:47;98961.22;;;30.07
66180;BMP280;52986;44.028;20.466;2022-10-16T09:04:45;98957.69;;;30.62
66180;BMP280;52986;44.028;20.466;2022-10-16T09:07:26;98964.00;;;30.87
66180;BMP280;52986;44.028;20.466;2022-10-16T09:12:40;98967.03;;;30.42
66180;BMP280;52986;44.028;20.466;2022-10-16T09:20:53;98960.88;;;30.51
66180;BMP280;52986;44.028;20.466;2022-10-16T09:23:28;98963.28;;;30.47
66180;BMP280;52986;44.028;20.466;2022-10-16T09:25:55;98969.03;;;29.18
66180;BMP280;52986;44.028;20.466;2022-10-16T09:28:20;98964.78;;;29.09
66180;BMP280;52986;44.028;20.466;2022-10-16T09:30:47;98972.44;;;28.73
66180;BMP280;52986;44.028;20.466;2022-10-16T09:33:15;98974.31;;;28.93
66180;BMP280;52986;44.028;20.466;2022-10-16T09:35:44;98979.91;;;28.65
66180;BMP280;52986;44.028;20.466;2022-10-16T09:38:31;98970.72;;;28.54
66180;BMP280;52986;44.028;20.466;2022-10-16T09:41:00;98977.31;;;28.23
66180;BMP280;52986;44.028;20.466;2022-10-16T09:43:34;98981.75;;;28.18
66180;BMP280;52986;44.028;20.466;2022-10-16T09:46:07;98978.66;;;28.01
66180;BMP280;52986;44.028;20.466;2022-10-16T09:48:39;98980.28;;;28.25
66180;BMP280;52986;44.028;20.466;2022-10-16T09:51:19;98981.59;;;28.03
66180;BMP280;52986;44.028;20.466;2022-10-16T09:53:46;98978.31;;;28.05
66180;BMP280;52986;44.028;20.466;2022-10-16T09:56:24;98976.16;;;28.11
66180;BMP280;52986;44.028;20.466;2022-10-16T09:58:53;98981.47;;;27.60
66180;BMP280;52986;44.028;20.466;2022-10-16T10:01:19;98975.72;;;28.28
66180;BMP280;52986;44.028;20.466;2022-10-16T10:03:46;98981.28;;;28.79
66180;BMP280;52986;44.028;20.466;2022-10-16T10:06:25;98973.25;;;29.11
66180;BMP280;52986;44.028;20.466;2022-10-16T10:08:54;98974.25;;;28.78
66180;BMP280;52986;44.028;20.466;2022-10-16T10:14:38;98962.41;;;29.66
66180;BMP280;52986;44.028;20.466;2022-10-16T10:19:41;98964.00;;;30.00
66180;BMP280;52986;44.028;20.466;2022-10-16T10:22:41;98965.13;;;29.74
66180;BMP280;52986;44.028;20.466;2022-10-16T10:33:09;98963.22;;;30.14
66180;BMP280;52986;44.028;20.466;2022-10-16T10:35:49;98957.88;;;30.24
66180;BMP280;52986;44.028;20.466;2022-10-16T10:41:09;98954.78;;;30.85
66180;BMP280;52986;44.028;20.466;2022-10-16T10:43:48;98952.09;;;30.37
66180;BMP280;52986;44.028;20.466;2022-10-16T11:01:18;98932.41;;;29.40
66180;BMP280;52986;44.028;20.466;2022-10-16T11:09:13;98935.53;;;29.29
66180;BMP280;52986;44.028;20.466;2022-10-16T11:11:44;98925.53;;;28.73
66180;BMP280;52986;44.028;20.466;2022-10-16T11:16:52;98924.28;;;28.30
66180;BMP280;52986;44.028;20.466;2022-10-16T11:27:08;98917.91;;;27.78
66180;BMP280;52986;44.028;20.466;2022-10-16T11:29:35;98917.53;;;27.54
66180;BMP280;52986;44.028;20.466;2022-10-16T11:32:15;98916.16;;;27.40
66180;BMP280;52986;44.028;20.466;2022-10-16T11:34:55;98922.72;;;27.16
66180;BMP280;52986;44.028;20.466;2022-10-16T11:37:31;98911.91;;;27.18
66180;BMP280;52986;44.028;20.466;2022-10-16T11:40:11;98912.69;;;27.26
66180;BMP280;52986;44.028;20.466;2022-10-16T11:42:46;98912.81;;;27.20
66180;BMP280;52986;44.028;20.466;2022-10-16T11:45:28;98910.31;;;26.88
66180;BMP280;52986;44.028;20.466;2022-10-16T11:48:00;98909.88;;;26.97
66180;BMP280;52986;44.028;20.466;2022-10-16T11:50:38;98902.63;;;27.08
66180;BMP280;52986;44.028;20.466;2022-10-16T11:55:39;98898.66;;;26.48
66180;BMP280;52986;44.028;20.466;2022-10-16T12:00:51;98892.00;;;26.57
66180;BMP280;52986;44.028;20.466;2022-10-16T12:03:29;98887.03;;;26.42
66180;BMP280;52986;44.028;20.466;2022-10-16T12:05:58;98894.97;;;26.46
66180;BMP280;52986;44.028;20.466;2022-10-16T12:08:28;98895.81;;;26.54
66180;BMP280;52986;44.028;20.466;2022-10-16T12:11:19;98890.44;;;26.35
66180;BMP280;52986;44.028;20.466;2022-10-16T12:13:45;98878.91;;;26.37
66180;BMP280;52986;44.028;20.466;2022-10-16T12:18:40;98885.72;;;25.83
66180;BMP280;52986;44.028;20.466;2022-10-16T12:21:06;98881.78;;;25.65
66180;BMP280;52986;44.028;20.466;2022-10-16T12:23:36;98888.41;;;25.57
66180;BMP280;52986;44.028;20.466;2022-10-16T12:26:03;98878.63;;;25.29
66180;BMP280;52986;44.028;20.466;2022-10-16T12:28:31;98872.75;;;24.88
66180;BMP280;52986;44.028;20.466;2022-10-16T12:31:05;98868.25;;;24.72
66180;BMP280;52986;44.028;20.466;2022-10-16T12:33:40;98873.94;;;24.55
66180;BMP280;52986;44.028;20.466;2022-10-16T12:36:29;98869.50;;;24.33
66180;BMP280;52986;44.028;20.466;2022-10-16T12:38:55;98870.56;;;24.00
66180;BMP280;52986;44.028;20.466;2022-10-16T12:41:27;98870.88;;;23.97
66180;BMP280;52986;44.028;20.466;2022-10-16T12:43:53;98874.03;;;23.76
66180;BMP280;52986;44.028;20.466;2022-10-16T12:48:44;98876.03;;;23.46
66180;BMP280;52986;44.028;20.466;2022-10-16T12:54:36;98880.50;;;23.49
66180;BMP280;52986;44.028;20.466;2022-10-16T13:00:26;98866.84;;;23.08
66180;BMP280;52986;44.028;20.466;2022-10-16T13:08:44;98868.19;;;22.90
66180;BMP280;52986;44.028;20.466;2022-10-16T13:16:50;98882.72;;;22.63
66180;BMP280;52986;44.028;20.466;2022-10-16T13:19:24;98885.72;;;22.54
66180;BMP280;52986;44.028;20.466;2022-10-16T13:27:07;98880.56;;;22.39
66180;BMP280;52986;44.028;20.466;2022-10-16T13:29:34;98880.59;;;22.33
66180;BMP280;52986;44.028;20.466;2022-10-16T13:32:06;98889.31;;;22.15
66180;BMP280;52986;44.028;20.466;2022-10-16T13:34:32;98881.91;;;21.99
66180;BMP280;52986;44.028;20.466;2022-10-16T13:36:57;98880.41;;;21.98
66180;BMP280;52986;44.028;20.466;2022-10-16T13:39:28;98881.91;;;21.99
66180;BMP280;52986;44.028;20.466;2022-10-16T13:42:13;98882.13;;;21.95
66180;BMP280;52986;44.028;20.466;2022-10-16T13:44:42;98880.66;;;21.89
66180;BMP280;52986;44.028;20.466;2022-10-16T13:49:44;98882.66;;;21.83
66180;BMP280;52986;44.028;20.466;2022-10-16T13:52:20;98879.66;;;21.81
66180;BMP280;52986;44.028;20.466;2022-10-16T13:54:46;98878.66;;;21.78
66180;BMP280;52986;44.028;20.466;2022-10-16T13:57:14;98881.66;;;21.75
66180;BMP280;52986;44.028;20.466;2022-10-16T13:59:39;98876.72;;;21.68
66180;BMP280;52986;44.028;20.466;2022-10-16T14:02:22;98874.47;;;21.60
66180;BMP280;52986;44.028;20.466;2022-10-16T14:04:50;98881.66;;;21.58
66180;BMP280;52986;44.028;20.466;2022-10-16T14:07:28;98881.41;;;21.61
66180;BMP280;52986;44.028;20.466;2022-10-16T14:09:54;98880.91;;;21.57
66180;BMP280;52986;44.028;20.466;2022-10-16T14:12:20;98883.13;;;21.53
66180;BMP280;52986;44.028;20.466;2022-10-16T14:14:48;98887.59;;;21.51
66180;BMP280;52986;44.028;20.466;2022-10-16T14:17:26;98887.56;;;21.45
66180;BMP280;52986;44.028;20.466;2022-10-16T14:19:54;98888.81;;;21.44
66180;BMP280;52986;44.028;20.466;2022-10-16T14:22:30;98888.31;;;21.40
66180;BMP280;52986;44.028;20.466;2022-10-16T14:24:57;98883.59;;;21.35
66180;BMP280;52986;44.028;20.466;2022-10-16T14:27:29;98886.06;;;21.33
66180;BMP280;52986;44.028;20.466;2022-10-16T14:30:16;98886.78;;;21.28
66180;BMP280;52986;44.028;20.466;2022-10-16T14:32:53;98894.97;;;21.28
66180;BMP280;52986;44.028;20.466;2022-10-16T14:35:36;98894.22;;;21.27
66180;BMP280;52986;44.028;20.466;2022-10-16T14:38:03;98896.44;;;21.23
66180;BMP280;52986;44.028;20.466;2022-10-16T14:40:31;98897.69;;;21.17
66180;BMP280;52986;44.028;20.466;2022-10-16T14:42:57;98895.66;;;21.12
66180;BMP280;52986;44.028;20.466;2022-10-16T14:45:27;98898.16;;;21.10
66180;BMP280;52986;44.028;20.466;2022-10-16T14:47:55;98893.94;;;21.09
66180;BMP280;52986;44.028;20.466;2022-10-16T14:50:22;98894.44;;;21.02
66180;BMP280;52986;44.028;20.466;2022-10-16T14:52:48;98896.59;;;20.92
66180;BMP280;52986;44.028;20.466;2022-10-16T14:55:14;98905.53;;;20.92
66180;BMP280;52986;44.028;20.466;2022-10-16T14:57:40;98906.28;;;20.93
66180;BMP280;52986;44.028;20.466;2022-10-16T15:00:15;98911.72;;;20.93
66180;BMP280;52986;44.028;20.466;2022-10-16T15:02:42;98910.94;;;20.81
66180;BMP280;52986;44.028;20.466;2022-10-16T15:05:22;98910.94;;;20.81
66180;BMP280;52986;44.028;20.466;2022-10-16T15:07:51;98918.09;;;20.79
66180;BMP280;52986;44.028;20.466;2022-10-16T15:10:17;98925.53;;;20.78
66180;BMP280;52986;44.028;20.466;2022-10-16T15:12:43;98907.63;;;20.66
66180;BMP280;52986;44.028;20.466;2022-10-16T15:17:54;98920.22;;;20.52
66180;BMP280;52986;44.028;20.466;2022-10-16T15:20:25;98920.91;;;20.47
66180;BMP280;52986;44.028;20.466;2022-10-16T15:22:51;98923.63;;;20.47
66180;BMP280;52986;44.028;20.466;2022-10-16T15:28:00;98922.56;;;20.34
66180;BMP280;52986;44.028;20.466;2022-10-16T15:30:26;98914.59;;;20.30
66180;BMP280;52986;44.028;20.466;2022-10-16T15:32:52;98927.38;;;20.18
66180;BMP280;52986;44.028;20.466;2022-10-16T15:35:17;98923.81;;;20.07
66180;BMP280;52986;44.028;20.466;2022-10-16T15:37:43;98935.16;;;20.00
66180;BMP280;52986;44.028;20.466;2022-10-16T15:40:10;98936.28;;;19.88
66180;BMP280;52986;44.028;20.466;2022-10-16T15:42:36;98942.34;;;19.77
66180;BMP280;52986;44.028;20.466;2022-10-16T15:45:02;98942.78;;;19.70
66180;BMP280;52986;44.028;20.466;2022-10-16T15:47:28;98942.47;;;19.62
66180;BMP280;52986;44.028;20.466;2022-10-16T15:49:53;98943.28;;;19.48
66180;BMP280;52986;44.028;20.466;2022-10-16T15:52:19;98954.50;;;19.35
66180;BMP280;52986;44.028;20.466;2022-10-16T15:54:44;98957.56;;;19.23
66180;BMP280;52986;44.028;20.466;2022-10-16T15:57:09;98961.13;;;19.08
66180;BMP280;52986;44.028;20.466;2022-10-16T15:59:35;98966.09;;;18.95
66180;BMP280;52986;44.028;20.466;2022-10-16T16:02:00;98966.63;;;18.79
66180;BMP280;52986;44.028;20.466;2022-10-16T16:04:25;98970.53;;;18.43
66180;BMP280;52986;44.028;20.466;2022-10-16T16:06:51;98970.97;;;18.27
66180;BMP280;52986;44.028;20.466;2022-10-16T16:09:16;98973.47;;;18.16
66180;BMP280;52986;44.028;20.466;2022-10-16T16:11:42;98975.84;;;18.08